Time;durP1;ratioP1;P1;durP2;ratioP2;P2;SDS_P1;SDS_P2;PMS_P1;PMS_P2;Temp;Humidity;BMP_temperature;BMP_pressure;BME280_temperature;BME280_humidity;BME280_pressure;Samples;Min_cycle;Max_cycle;Signal;HPM_P1;HPM_P2
2023/03/24 00:00:28;;;;;;;4.93;3.00;;;;;;;13.99;70.25;99273.50;12945667;22;20020;-71
2023/03/24 00:05:29;;;;;;;6.45;2.72;;;;;;;13.86;70.56;99259.09;12972452;22;20031;-71
2023/03/24 00:10:33;;;;;;;3.03;2.33;;;;;;;13.83;70.84;99264.94;12972505;22;20095;-70
2023/03/24 00:15:35;;;;;;;3.97;2.50;;;;;;;13.80;71.51;99270.78;12984185;22;20047;-71
2023/03/24 00:20:36;;;;;;;6.88;3.30;;;;;;;13.78;71.53;99263.94;12972544;22;20131;-72
2023/03/24 00:25:38;;;;;;;4.05;2.03;;;;;;;13.83;71.74;99256.00;12972870;22;20099;-72
2023/03/24 00:30:40;;;;;;;4.93;1.85;;;;;;;13.86;71.51;99258.25;12920515;22;20464;-72
2023/03/24 00:35:43;;;;;;;3.28;1.95;;;;;;;13.97;71.47;99251.28;12972156;22;20734;-72
2023/03/24 00:40:47;;;;;;;3.00;2.05;;;;;;;14.06;71.36;99242.66;12977290;22;20019;-71
2023/03/24 00:45:48;;;;;;;3.78;1.55;;;;;;;14.16;71.21;99234.00;12973021;22;20015;-73
2023/03/24 00:50:50;;;;;;;4.57;1.70;;;;;;;14.20;71.07;99226.28;12973479;22;20367;-73
2023/03/24 00:55:52;;;;;;;4.35;2.00;;;;;;;14.29;71.08;99205.97;12980013;22;20024;-72
2023/03/24 01:00:56;;;;;;;2.13;1.60;;;;;;;14.27;70.90;99199.97;12949674;22;20349;-74
2023/03/24 01:06:02;;;;;;;6.28;1.88;;;;;;;14.23;71.27;99196.06;12975714;22;20020;-74
2023/03/24 01:11:05;;;;;;;5.90;1.47;;;;;;;14.28;71.11;99183.53;12974625;22;20094;-74
2023/03/24 01:16:07;;;;;;;2.63;1.73;;;;;;;14.34;70.96;99172.88;12975379;22;20243;-74
2023/03/24 01:21:10;;;;;;;3.50;2.08;;;;;;;14.37;71.06;99165.09;12976056;22;20051;-75
2023/03/24 01:26:12;;;;;;;5.75;1.98;;;;;;;14.41;70.81;99162.75;12974495;22;20455;-72
2023/03/24 01:31:13;;;;;;;6.38;2.08;;;;;;;14.48;70.61;99150.78;12975239;22;20082;-71
2023/03/24 01:36:15;;;;;;;4.15;2.03;;;;;;;14.54;70.71;99142.81;12976380;22;20047;-69
2023/03/24 01:41:16;;;;;;;3.83;2.13;;;;;;;14.58;70.71;99138.63;12944261;22;20031;-72
2023/03/24 01:46:19;;;;;;;6.88;2.95;;;;;;;14.57;70.82;99136.97;12975109;22;20498;-75
2023/03/24 01:51:36;;;;;;;5.78;1.92;;;;;;;14.55;71.03;99137.16;12974676;22;20364;-71
2023/03/24 01:56:46;;;;;;;4.32;2.20;;;;;;;14.52;70.90;99132.22;12974908;22;20255;-75
2023/03/24 02:01:48;;;;;;;5.20;2.22;;;;;;;14.53;71.03;99133.06;12973099;22;20032;-75
2023/03/24 02:06:50;;;;;;;3.38;1.85;;;;;;;14.54;71.03;99123.91;12975684;22;20024;-73
2023/03/24 02:11:51;;;;;;;4.80;2.28;;;;;;;14.57;71.23;99118.03;12974565;22;20023;-71
2023/03/24 02:17:14;;;;;;;4.45;2.08;;;;;;;14.55;71.25;99106.59;12946858;22;20054;-75
2023/03/24 02:22:52;;;;;;;6.20;2.30;;;;;;;14.47;71.07;99097.78;12972067;22;20028;-73
2023/03/24 02:28:16;;;;;;;4.88;2.20;;;;;;;14.38;71.38;99101.88;12947948;22;20016;-71
2023/03/24 02:33:56;;;;;;;3.63;1.77;;;;;;;14.43;71.17;99091.16;12945096;22;20333;-70
2023/03/24 02:39:20;;;;;;;3.80;2.08;;;;;;;14.39;71.39;99075.66;12971691;22;20024;-71
2023/03/24 02:44:55;;;;;;;3.47;1.85;;;;;;;14.40;71.48;99066.50;12975082;22;20024;-75
2023/03/24 02:50:17;;;;;;;3.00;2.00;;;;;;;14.39;71.69;99052.13;12951064;22;20348;-73
2023/03/24 02:55:30;;;;;;;3.63;2.05;;;;;;;14.39;71.80;99035.91;12972356;22;20403;-74
2023/03/24 03:00:38;;;;;;;6.13;3.58;;;;;;;14.39;71.42;99045.91;12974437;22;20487;-75
2023/03/24 03:05:58;;;;;;;7.00;3.33;;;;;;;14.29;71.58;99038.38;12947781;22;20464;-73
2023/03/24 03:11:02;;;;;;;5.97;3.88;;;;;;;14.25;71.71;99054.22;12974378;22;20093;-75
2023/03/24 03:16:14;;;;;;;6.38;3.00;;;;;;;14.13;72.10;99060.69;12944945;22;20384;-74
2023/03/24 03:21:19;;;;;;;9.60;3.65;;;;;;;14.07;72.15;99048.91;12974212;22;20103;-74
2023/03/24 03:26:25;;;;;;;6.80;3.45;;;;;;;14.06;72.24;99029.19;12973317;22;20015;-75
2023/03/24 03:31:43;;;;;;;5.38;3.63;;;;;;;14.02;72.41;99019.88;12972446;22;20264;-75
2023/03/24 03:36:52;;;;;;;9.48;5.70;;;;;;;13.98;72.63;99005.19;12973936;22;20024;-75
2023/03/24 03:41:55;;;;;;;9.02;4.00;;;;;;;14.00;72.52;99013.06;12970921;22;20030;-75
2023/03/24 03:46:57;;;;;;;4.60;3.22;;;;;;;14.02;72.04;99008.25;12972444;22;20027;-75
2023/03/24 03:51:58;;;;;;;5.00;3.33;;;;;;;13.99;72.66;99014.94;12972839;22;20028;-74
2023/03/24 03:57:00;;;;;;;10.35;4.40;;;;;;;13.95;72.90;99011.06;12972437;22;20032;-69
2023/03/24 04:02:33;;;;;;;8.30;3.60;;;;;;;13.96;72.99;99011.88;12971889;22;20091;-74
2023/03/24 04:07:40;;;;;;;5.43;3.60;;;;;;;13.97;73.04;99018.94;12945768;22;20023;-71
2023/03/24 04:12:59;;;;;;;6.88;3.33;;;;;;;13.89;73.21;99004.69;12982383;22;20031;-74
2023/03/24 04:18:15;;;;;;;5.30;3.45;;;;;;;13.87;73.43;99005.97;12946501;22;20027;-74
2023/03/24 04:23:43;;;;;;;8.48;4.38;;;;;;;13.84;73.26;99012.69;12943849;22;20024;-72
2023/03/24 04:29:16;;;;;;;7.00;4.05;;;;;;;13.72;73.57;99019.09;12977485;22;20069;-71
2023/03/24 04:34:28;;;;;;;6.22;3.65;;;;;;;13.61;73.91;99024.22;12977624;22;20406;-70
2023/03/24 04:39:37;;;;;;;6.13;4.10;;;;;;;13.48;74.57;99014.41;13011154;22;20023;-69
2023/03/24 04:44:40;;;;;;;7.97;5.20;;;;;;;13.33;75.14;99013.16;13034967;22;20023;-66
2023/03/24 04:49:42;;;;;;;6.88;4.90;;;;;;;13.34;75.48;99007.53;13036569;22;20019;-66
2023/03/24 04:54:43;;;;;;;8.43;4.95;;;;;;;13.37;75.98;99004.41;13032595;22;20139;-65
2023/03/24 04:59:45;;;;;;;8.63;4.68;;;;;;;13.46;75.73;98986.81;13019667;22;20020;-69
2023/03/24 05:04:46;;;;;;;8.05;5.25;;;;;;;13.50;76.06;98984.47;12976329;22;20061;-69
2023/03/24 05:09:47;;;;;;;7.35;5.20;;;;;;;13.53;76.14;98991.31;12986726;22;20460;-66
2023/03/24 05:14:49;;;;;;;8.95;5.97;;;;;;;13.58;76.30;99013.03;12978372;22;20077;-69
2023/03/24 05:19:50;;;;;;;7.30;5.00;;;;;;;13.60;76.56;98995.56;12982933;22;20024;-66
2023/03/24 05:24:51;;;;;;;9.23;4.40;;;;;;;13.62;76.61;99023.16;12973751;22;20034;-69
2023/03/24 05:29:53;;;;;;;8.85;5.07;;;;;;;13.68;76.64;99034.91;12945778;22;20028;-67
2023/03/24 05:34:54;;;;;;;7.45;4.20;;;;;;;13.74;76.95;99031.28;12971638;22;20344;-68
2023/03/24 05:46:11;;;;;;;6.93;4.78;;;;;;;13.88;76.71;99057.09;12968274;22;20024;-69
2023/03/24 05:51:13;;;;;;;7.03;4.50;;;;;;;13.97;76.62;99046.75;12982539;22;20024;-67
2023/03/24 05:56:14;;;;;;;10.93;5.03;;;;;;;14.09;76.52;99044.09;12972666;22;20077;-69
2023/03/24 06:01:17;;;;;;;7.57;4.25;;;;;;;14.07;76.49;99063.25;12974354;22;20106;-68
2023/03/24 06:06:18;;;;;;;7.13;4.25;;;;;;;14.12;76.65;99065.28;12973390;22;20023;-66
2023/03/24 06:11:20;;;;;;;8.15;4.50;;;;;;;14.23;76.15;99067.16;12947275;22;20329;-71
2023/03/24 06:16:22;;;;;;;7.35;4.20;;;;;;;14.27;76.16;99065.63;12947153;22;20360;-71
2023/03/24 06:21:29;;;;;;;5.18;4.10;;;;;;;14.32;76.27;99064.13;12981519;22;20098;-69
2023/03/24 06:26:34;;;;;;;6.03;3.78;;;;;;;14.36;75.98;99068.03;12972620;22;20086;-69
2023/03/24 06:31:36;;;;;;;5.13;3.80;;;;;;;14.42;75.90;99056.28;12943976;22;20117;-67
2023/03/24 06:36:37;;;;;;;12.23;4.03;;;;;;;14.45;76.02;99058.50;12918409;22;20016;-69
2023/03/24 06:41:39;;;;;;;3.45;2.70;;;;;;;14.53;75.65;99066.25;12941772;22;20027;-70
2023/03/24 06:46:40;;;;;;;4.22;1.92;;;;;;;14.62;75.33;99073.00;12971479;22;20023;-71
2023/03/24 06:51:42;;;;;;;3.70;1.95;;;;;;;14.70;75.13;99062.91;12973947;22;20024;-70
2023/03/24 06:56:43;;;;;;;3.63;1.60;;;;;;;14.80;74.57;99065.84;12919411;22;20054;-73
2023/03/24 07:01:48;;;;;;;1.42;1.15;;;;;;;14.85;74.12;99057.88;12950228;22;20164;-74
2023/03/24 07:06:50;;;;;;;3.00;1.15;;;;;;;14.80;74.29;99072.06;12946801;22;20024;-73
2023/03/24 07:12:11;;;;;;;1.98;1.10;;;;;;;14.60;74.99;99074.31;12950159;22;20047;-72
2023/03/24 07:17:15;;;;;;;2.28;1.40;;;;;;;14.65;74.92;99077.13;12973028;22;20024;-72
2023/03/24 07:22:16;;;;;;;4.22;1.50;;;;;;;14.79;74.48;99092.09;12945141;22;20023;-71
2023/03/24 07:27:17;;;;;;;3.67;1.85;;;;;;;14.86;74.19;99103.59;12972470;22;20342;-71
2023/03/24 07:32:19;;;;;;;1.85;1.33;;;;;;;14.90;73.94;99108.56;12972093;22;20043;-72
2023/03/24 07:37:20;;;;;;;3.63;1.85;;;;;;;14.93;73.89;99108.91;12982676;22;20022;-68
2023/03/24 07:42:22;;;;;;;1.45;1.25;;;;;;;15.01;73.49;99115.84;12971801;22;20023;-73
2023/03/24 07:47:23;;;;;;;4.57;2.15;;;;;;;14.94;73.70;99121.38;12972173;22;20028;-72
2023/03/24 07:52:24;;;;;;;2.67;2.00;;;;;;;14.61;74.72;99132.75;12972898;22;20052;-69
2023/03/24 07:57:26;;;;;;;3.33;2.55;;;;;;;14.48;75.25;99131.88;12972632;22;20053;-69
2023/03/24 08:02:27;;;;;;;4.47;3.10;;;;;;;14.44;75.25;99127.97;12967516;22;20642;-69
2023/03/24 08:07:29;;;;;;;4.72;3.33;;;;;;;14.39;75.81;99119.72;12970696;22;20408;-69
2023/03/24 08:12:30;;;;;;;6.75;3.53;;;;;;;14.42;76.01;99105.75;12972132;22;20031;-68
2023/03/24 08:17:32;;;;;;;4.97;3.35;;;;;;;14.55;76.11;99093.91;12970335;22;20452;-68
2023/03/24 08:22:36;;;;;;;5.03;3.40;;;;;;;14.62;76.13;99104.66;12919155;22;20399;-66
2023/03/24 08:27:39;;;;;;;9.48;3.08;;;;;;;14.69;76.20;99118.88;12969705;22;20023;-66
2023/03/24 08:32:55;;;;;;;4.47;2.58;;;;;;;14.82;75.88;99115.13;12967154;22;20341;-66
2023/03/24 08:38:00;;;;;;;4.95;3.10;;;;;;;14.88;75.87;99133.13;12969516;22;20032;-66
2023/03/24 08:43:07;;;;;;;3.75;2.30;;;;;;;14.87;75.71;99135.03;12967820;22;20456;-66
2023/03/24 08:48:09;;;;;;;4.22;2.75;;;;;;;14.88;76.01;99138.53;12970037;22;20030;-69
2023/03/24 08:53:11;;;;;;;3.55;2.53;;;;;;;14.63;76.58;99136.03;12946088;22;20032;-69
2023/03/24 08:58:19;;;;;;;4.95;2.88;;;;;;;14.44;77.17;99109.06;12943004;22;20069;-69
2023/03/24 09:03:21;;;;;;;8.45;2.88;;;;;;;14.41;77.38;99104.09;12969235;22;20101;-68
2023/03/24 09:08:24;;;;;;;5.93;3.90;;;;;;;14.47;77.67;99105.91;12969901;22;20054;-67
2023/03/24 09:13:25;;;;;;;5.30;3.53;;;;;;;14.47;77.99;99118.56;12971529;22;20027;-67
2023/03/24 09:18:27;;;;;;;3.25;2.28;;;;;;;14.48;77.85;99118.34;12974474;22;20081;-67
2023/03/24 09:23:30;;;;;;;3.45;1.38;;;;;;;14.40;78.08;99142.19;12973056;22;20344;-66
2023/03/24 09:28:32;;;;;;;1.60;0.75;;;;;;;14.23;78.15;99123.91;12973903;22;20547;-65
2023/03/24 09:33:33;;;;;;;2.60;0.75;;;;;;;14.09;78.39;99146.78;12980170;22;20023;-68
2023/03/24 09:38:35;;;;;;;1.40;0.50;;;;;;;14.07;78.34;99162.41;12986368;22;20082;-69
2023/03/24 09:43:43;;;;;;;0.98;0.30;;;;;;;13.93;77.86;99175.25;12981991;22;20015;-70
2023/03/24 09:48:53;;;;;;;0.52;0.30;;;;;;;13.62;78.18;99212.16;12981342;22;20020;-70
2023/03/24 09:54:17;;;;;;;2.00;0.52;;;;;;;13.24;79.55;99223.13;12992383;22;20020;-67
2023/03/24 09:59:38;;;;;;;2.42;0.20;;;;;;;12.74;79.65;99236.56;12976538;22;20141;-67
2023/03/24 10:04:40;;;;;;;2.22;0.30;;;;;;;12.69;79.45;99232.66;12974061;22;20077;-68
2023/03/24 10:09:45;;;;;;;0.75;0.20;;;;;;;12.66;79.10;99243.06;12946799;22;20024;-68
2023/03/24 10:14:56;;;;;;;4.22;0.30;;;;;;;12.64;78.99;99234.38;12974069;22;20058;-67
2023/03/24 10:20:24;;;;;;;2.67;0.20;;;;;;;12.68;78.79;99244.50;12970467;22;20031;-66
2023/03/24 10:25:42;;;;;;;;;;;;;;;12.67;79.01;99250.91;12973159;22;20773;-64
2023/03/24 10:30:46;;;;;;;3.22;0.22;;;;;;;12.55;78.88;99266.13;12972392;22;19945;-65
2023/03/24 10:36:01;;;;;;;2.85;0.20;;;;;;;12.61;78.63;99269.84;12971514;22;20024;-64
2023/03/24 10:41:03;;;;;;;1.60;0.40;;;;;;;12.77;78.39;99261.22;12968124;22;20028;-64
2023/03/24 10:46:05;;;;;;;0.73;0.20;;;;;;;12.81;78.03;99267.00;12971549;22;20027;-63
2023/03/24 10:51:16;;;;;;;1.55;0.30;;;;;;;13.14;77.91;99244.38;12970037;22;20024;-64
2023/03/24 10:56:40;;;;;;;6.22;1.38;;;;;;;13.14;78.11;99241.69;12971104;22;20085;-64
2023/03/24 11:01:42;;;;;;;2.47;0.30;;;;;;;13.13;78.75;99257.06;12970548;22;20022;-64
2023/03/24 11:07:00;;;;;;;0.60;0.30;;;;;;;13.35;78.20;99271.00;12971175;22;20140;-63
2023/03/24 11:12:03;;;;;;;1.25;0.25;;;;;;;13.33;78.93;99258.75;12970662;22;20028;-65
2023/03/24 11:17:15;;;;;;;4.35;0.40;;;;;;;13.50;78.48;99278.75;12967710;22;20353;-65
2023/03/24 11:22:17;;;;;;;2.88;0.65;;;;;;;13.53;78.85;99289.13;12970316;22;20089;-65
2023/03/24 11:27:19;;;;;;;2.53;0.35;;;;;;;13.82;78.20;99281.34;12969313;22;20396;-65
2023/03/24 11:32:26;;;;;;;1.13;0.30;;;;;;;14.12;78.22;99270.66;12969762;22;20085;-65
2023/03/24 11:37:33;;;;;;;1.85;0.35;;;;;;;14.19;78.06;99271.38;12973252;22;20019;-65
2023/03/24 11:42:56;;;;;;;3.38;0.30;;;;;;;14.30;77.88;99259.00;12969811;22;20028;-65
2023/03/24 11:48:00;;;;;;;1.73;0.30;;;;;;;14.62;77.50;99264.22;12977229;22;20058;-65
2023/03/24 11:53:14;;;;;;;2.45;0.57;;;;;;;14.79;77.16;99258.97;12980624;22;20034;-66
2023/03/24 11:58:35;;;;;;;0.70;0.30;;;;;;;15.15;76.13;99258.03;12952692;22;20020;-65
2023/03/24 12:04:19;;;;;;;4.13;0.57;;;;;;;15.30;75.94;99262.97;12988617;22;20019;-67
2023/03/24 12:09:52;;;;;;;3.40;0.30;;;;;;;15.61;75.13;99247.44;12951877;22;20036;-67
2023/03/24 12:15:18;;;;;;;1.38;0.38;;;;;;;15.63;75.23;99254.28;12978265;22;20020;-68
2023/03/24 12:20:43;;;;;;;3.83;1.52;;;;;;;15.93;73.63;99247.09;12974684;22;20536;-66
2023/03/24 12:26:04;;;;;;;2.05;0.40;;;;;;;16.16;73.21;99246.22;12942827;22;20027;-68
2023/03/24 12:31:37;;;;;;;2.95;0.50;;;;;;;16.57;71.53;99238.91;12940999;22;20523;-65
2023/03/24 12:36:53;;;;;;;3.53;0.30;;;;;;;16.60;70.19;99236.50;12970775;22;20568;-66
2023/03/24 12:42:14;;;;;;;1.55;0.25;;;;;;;16.87;68.84;99235.94;12968515;22;20031;-65
2023/03/24 12:47:34;;;;;;;1.85;0.13;;;;;;;17.33;67.05;99242.13;12971367;22;20027;-66
2023/03/24 12:53:05;;;;;;;1.52;0.32;;;;;;;17.35;65.64;99244.59;12973665;22;20020;-68
2023/03/24 12:58:19;;;;;;;2.80;0.20;;;;;;;17.84;64.03;99242.06;12974389;22;20027;-67
2023/03/24 13:03:29;;;;;;;2.63;0.20;;;;;;;17.94;61.59;99246.84;12973328;22;20368;-70
2023/03/24 13:08:31;;;;;;;3.78;0.20;;;;;;;18.03;56.28;99232.53;12973239;22;20402;-70
2023/03/24 13:13:39;;;;;;;0.95;0.10;;;;;;;18.01;52.82;99253.72;12973912;22;20091;-71
2023/03/24 13:18:59;;;;;;;1.65;0.13;;;;;;;18.22;50.73;99246.63;12982474;22;20090;-71
2023/03/24 13:24:12;;;;;;;3.40;0.95;;;;;;;18.24;49.30;99243.66;12974422;22;20019;-71
2023/03/24 13:29:39;;;;;;;1.38;0.40;;;;;;;18.30;49.07;99252.72;12973150;22;20453;-70
2023/03/24 13:34:59;;;;;;;2.45;0.28;;;;;;;18.45;46.84;99233.84;12973667;22;20348;-71
2023/03/24 13:40:06;;;;;;;1.70;0.10;;;;;;;18.74;45.18;99245.31;12971393;22;20019;-69
2023/03/24 13:45:25;;;;;;;0.82;0.20;;;;;;;18.91;44.79;99231.59;12974390;22;20225;-69
2023/03/24 13:50:31;;;;;;;2.58;0.30;;;;;;;18.99;43.30;99227.59;12968155;22;20028;-68
2023/03/24 13:55:37;;;;;;;1.70;0.20;;;;;;;19.19;43.85;99219.59;12967471;22;20016;-69
2023/03/24 14:01:05;;;;;;;3.03;0.55;;;;;;;19.27;43.14;99220.19;12970456;22;20717;-69
2023/03/24 14:06:08;;;;;;;2.17;0.20;;;;;;;19.62;43.10;99217.69;12972862;22;20030;-71
2023/03/24 14:11:37;;;;;;;5.28;0.40;;;;;;;20.08;42.82;99202.69;12971565;22;20718;-70
2023/03/24 14:16:43;;;;;;;2.28;0.57;;;;;;;20.08;41.87;99216.31;12972198;22;20070;-71
2023/03/24 14:21:51;;;;;;;2.83;0.20;;;;;;;20.21;41.72;99213.91;12981935;22;20029;-70
2023/03/24 14:26:53;;;;;;;6.57;1.48;;;;;;;20.34;41.93;99204.41;12970350;22;20027;-69
2023/03/24 14:32:01;;;;;;;3.50;0.50;;;;;;;20.69;41.86;99189.22;12969418;22;20353;-69
2023/03/24 14:37:21;;;;;;;3.42;0.30;;;;;;;20.98;41.32;99185.97;12975739;22;20023;-69
2023/03/24 14:42:31;;;;;;;1.38;0.20;;;;;;;20.85;41.29;99184.59;12945660;22;20023;-71
2023/03/24 14:47:36;;;;;;;2.85;0.28;;;;;;;20.82;41.28;99187.06;12972800;22;20758;-70
2023/03/24 14:52:50;;;;;;;2.00;0.50;;;;;;;20.52;40.91;99191.38;12946225;22;20098;-70
2023/03/24 14:57:55;;;;;;;2.65;0.20;;;;;;;19.99;41.46;99199.66;12947484;22;20070;-71
2023/03/24 15:03:40;;;;;;;2.47;0.30;;;;;;;19.86;40.88;99194.69;12973571;22;20472;-69
2023/03/24 15:08:53;;;;;;;3.17;0.20;;;;;;;19.60;40.69;99189.06;12980404;22;20023;-69
2023/03/24 15:13:56;;;;;;;2.22;0.20;;;;;;;19.56;40.36;99193.41;12977152;22;20019;-70
2023/03/24 15:18:59;;;;;;;1.05;0.32;;;;;;;19.56;41.18;99188.78;12975410;22;20030;-69
2023/03/24 15:24:26;;;;;;;1.73;0.20;;;;;;;19.60;41.10;99169.97;12952421;22;20537;-69
2023/03/24 15:29:27;;;;;;;0.98;0.20;;;;;;;19.50;41.55;99170.75;12960715;22;20019;-71
2023/03/24 15:34:46;;;;;;;2.17;0.40;;;;;;;19.67;41.15;99164.28;12959214;22;20023;-69
2023/03/24 15:39:52;;;;;;;5.13;0.30;;;;;;;19.50;41.14;99165.28;12976032;22;20030;-69
2023/03/24 15:45:19;;;;;;;1.73;0.20;;;;;;;19.44;41.18;99166.34;12956948;22;20026;-71
2023/03/24 15:50:34;;;;;;;1.40;0.20;;;;;;;19.27;41.19;99165.69;12947236;22;20041;-70
2023/03/24 15:55:36;;;;;;;3.22;0.20;;;;;;;19.20;41.32;99169.47;12971675;22;20666;-70
2023/03/24 16:00:41;;;;;;;3.03;0.10;;;;;;;19.08;40.02;99160.69;12986609;22;20030;-73
2023/03/24 16:05:47;;;;;;;3.00;0.20;;;;;;;19.01;38.17;99157.34;12977255;22;20115;-72
2023/03/24 16:11:05;;;;;;;4.60;0.20;;;;;;;18.87;37.41;99154.25;12956480;22;20027;-72
2023/03/24 16:16:23;;;;;;;1.23;0.40;;;;;;;18.77;37.61;99149.50;12946804;22;20250;-73
2023/03/24 16:21:27;;;;;;;1.92;0.20;;;;;;;18.46;38.15;99156.56;12981023;22;20482;-73
2023/03/24 16:26:31;;;;;;;1.15;0.20;;;;;;;18.22;38.22;99167.75;12983632;22;20099;-72
2023/03/24 16:31:34;;;;;;;4.07;0.55;;;;;;;18.16;38.98;99166.06;12985305;22;20041;-72
2023/03/24 16:36:36;;;;;;;1.27;0.15;;;;;;;18.17;39.62;99173.16;12980983;22;20020;-71
2023/03/24 16:41:37;;;;;;;1.75;0.20;;;;;;;18.16;40.19;99166.06;12977668;22;20034;-72
2023/03/24 16:46:39;;;;;;;2.72;0.25;;;;;;;18.06;40.64;99165.94;12978088;22;20026;-73
2023/03/24 16:51:42;;;;;;;4.00;0.70;;;;;;;17.88;40.50;99183.41;12953218;22;20027;-72
2023/03/24 16:56:43;;;;;;;3.45;0.40;;;;;;;17.81;39.87;99180.00;12982485;22;20127;-73
2023/03/24 17:01:46;;;;;;;1.48;0.30;;;;;;;17.89;40.33;99189.66;12953829;22;20094;-72
2023/03/24 17:06:53;;;;;;;2.03;0.25;;;;;;;17.72;40.29;99181.53;12977452;22;20056;-71
2023/03/24 17:11:57;;;;;;;1.85;0.32;;;;;;;17.63;40.77;99181.13;12952789;22;20031;-71
2023/03/24 17:17:00;;;;;;;1.70;0.20;;;;;;;17.62;40.31;99184.94;12951387;22;20023;-71
2023/03/24 17:22:05;;;;;;;3.10;0.70;;;;;;;17.44;39.87;99181.44;12986098;22;20024;-70
2023/03/24 17:27:25;;;;;;;2.10;0.32;;;;;;;17.28;39.50;99176.88;12952146;22;20089;-70
2023/03/24 17:32:30;;;;;;;2.85;0.28;;;;;;;17.24;39.39;99183.88;12979811;22;20016;-70
2023/03/24 17:37:32;;;;;;;1.90;0.40;;;;;;;17.14;39.29;99189.13;12978120;22;20023;-70
2023/03/24 17:42:34;;;;;;;11.27;1.38;;;;;;;17.00;39.41;99188.63;12976642;22;20031;-69
2023/03/24 17:47:35;;;;;;;3.88;0.30;;;;;;;16.92;39.85;99200.72;12975887;22;20085;-70
2023/03/24 17:52:47;;;;;;;3.22;0.20;;;;;;;16.79;40.52;99201.84;12978940;22;20020;-69
2023/03/24 17:57:48;;;;;;;6.20;0.20;;;;;;;16.69;41.55;99209.81;12981963;22;20024;-69
2023/03/24 18:02:50;;;;;;;3.58;0.57;;;;;;;16.53;41.42;99213.28;12960564;22;20089;-70
2023/03/24 18:07:51;;;;;;;3.25;0.30;;;;;;;16.43;41.50;99222.91;12956079;22;20020;-68
2023/03/24 18:12:53;;;;;;;3.03;0.30;;;;;;;16.33;41.86;99240.84;12943488;22;20031;-67
2023/03/24 18:17:55;;;;;;;2.22;0.30;;;;;;;16.23;41.77;99236.03;12944899;22;20020;-67
2023/03/24 18:22:56;;;;;;;2.72;0.20;;;;;;;16.11;42.71;99238.78;12968554;22;20171;-68
2023/03/24 18:27:58;;;;;;;2.67;0.20;;;;;;;15.99;42.96;99248.84;12979498;22;20028;-69
2023/03/24 18:33:00;;;;;;;6.63;1.58;;;;;;;15.93;43.31;99275.00;12945836;22;20345;-68
2023/03/24 18:38:01;;;;;;;1.77;0.30;;;;;;;15.88;43.68;99271.34;12943191;22;20058;-67
2023/03/24 18:43:03;;;;;;;3.08;0.70;;;;;;;15.75;44.04;99267.84;12922689;22;20035;-67
2023/03/24 18:48:05;;;;;;;3.25;0.30;;;;;;;15.75;44.42;99278.69;12919319;22;20451;-64
2023/03/24 18:53:06;;;;;;;1.90;0.20;;;;;;;15.70;44.63;99280.41;12947675;22;20031;-66
2023/03/24 18:58:13;;;;;;;1.63;0.32;;;;;;;15.63;44.83;99275.94;12952703;22;20019;-67
2023/03/24 19:03:16;;;;;;;4.63;0.30;;;;;;;15.56;45.36;99280.66;12916975;22;20500;-66
2023/03/24 19:08:21;;;;;;;3.15;0.60;;;;;;;15.53;45.12;99294.66;12945401;22;20046;-66
2023/03/24 19:13:22;;;;;;;2.10;0.20;;;;;;;15.49;45.18;99308.94;12919643;22;20070;-69
2023/03/24 19:18:24;;;;;;;6.40;0.82;;;;;;;15.47;45.49;99320.00;12945655;22;20098;-65
2023/03/24 19:23:27;;;;;;;3.63;0.20;;;;;;;14.99;47.60;99372.38;12941323;22;20020;-65
2023/03/24 19:28:31;;;;;;;4.35;0.32;;;;;;;13.70;54.86;99397.41;12951587;22;20023;-63
2023/03/24 19:33:32;;;;;;;2.35;0.35;;;;;;;13.35;56.23;99394.31;12945359;22;20093;-65
2023/03/24 19:38:34;;;;;;;2.60;0.25;;;;;;;13.15;56.96;99389.88;12942466;22;20078;-67
2023/03/24 19:43:36;;;;;;;4.25;0.30;;;;;;;13.01;56.56;99389.13;12941241;22;20016;-66
2023/03/24 19:48:38;;;;;;;2.22;0.20;;;;;;;12.93;56.38;99375.03;12967073;22;20024;-67
2023/03/24 19:53:39;;;;;;;2.50;0.75;;;;;;;12.92;56.47;99381.50;12949431;22;20023;-66
2023/03/24 19:58:41;;;;;;;5.03;2.20;;;;;;;12.96;56.52;99367.34;12947705;22;20412;-68
2023/03/24 20:03:42;;;;;;;2.13;0.20;;;;;;;12.98;56.25;99359.88;12947771;22;20058;-67
2023/03/24 20:08:44;;;;;;;3.15;0.30;;;;;;;12.98;55.98;99359.88;12941475;22;20023;-68
2023/03/24 20:13:45;;;;;;;3.35;0.32;;;;;;;12.98;56.79;99359.88;12971730;22;20078;-65
2023/03/24 20:18:47;;;;;;;2.25;0.20;;;;;;;12.85;57.22;99358.06;12971520;22;20549;-65
2023/03/24 20:23:49;;;;;;;1.23;0.20;;;;;;;12.70;57.75;99355.66;12970370;22;20026;-67
2023/03/24 20:28:50;;;;;;;1.65;0.10;;;;;;;12.66;57.73;99348.22;12968768;22;20028;-66
2023/03/24 20:33:52;;;;;;;0.88;0.10;;;;;;;12.59;58.05;99356.31;12970443;22;20352;-63
2023/03/24 20:38:58;;;;;;;2.65;0.20;;;;;;;12.54;58.08;99353.44;12969444;22;20818;-66
2023/03/24 20:43:59;;;;;;;2.38;0.20;;;;;;;12.49;58.36;99342.47;12975230;22;20102;-67
2023/03/24 20:49:01;;;;;;;0.85;0.20;;;;;;;12.42;58.91;99336.25;12967776;22;20019;-64
2023/03/24 20:54:04;;;;;;;2.95;0.22;;;;;;;12.33;58.79;99332.16;12971011;22;20178;-68
2023/03/24 20:59:06;;;;;;;1.95;0.20;;;;;;;12.23;58.69;99333.44;12969328;22;20078;-65
2023/03/24 21:04:08;;;;;;;4.47;0.50;;;;;;;12.12;59.32;99326.00;12969166;22;20024;-67
2023/03/24 21:09:10;;;;;;;2.95;0.30;;;;;;;12.01;59.80;99332.88;12972789;22;20016;-66
2023/03/24 21:14:11;;;;;;;3.67;0.38;;;;;;;11.90;60.34;99334.31;12973653;22;20089;-66
2023/03/24 21:19:13;;;;;;;2.25;0.60;;;;;;;11.86;60.10;99333.06;12945574;22;20042;-66
2023/03/24 21:24:16;;;;;;;7.60;2.25;;;;;;;11.70;60.79;99339.72;12974550;22;20028;-67
2023/03/24 21:29:17;;;;;;;2.88;1.20;;;;;;;11.64;61.04;99343.22;12972694;22;20469;-69
2023/03/24 21:34:18;;;;;;;1.90;0.95;;;;;;;11.66;60.90;99357.31;12945991;22;20020;-69
2023/03/24 21:39:20;;;;;;;2.25;0.30;;;;;;;11.69;61.07;99393.78;12971273;22;20077;-66
2023/03/24 21:44:22;;;;;;;1.70;0.30;;;;;;;11.43;62.02;99405.34;12977864;22;20105;-68
2023/03/24 21:49:23;;;;;;;3.50;0.20;;;;;;;11.35;63.45;99410.91;12974616;22;20026;-65
2023/03/24 21:54:25;;;;;;;3.28;0.20;;;;;;;11.64;62.53;99413.22;12974177;22;20080;-67
2023/03/24 21:59:27;;;;;;;2.70;0.20;;;;;;;11.78;61.80;99395.22;12970791;22;20020;-68
2023/03/24 22:04:28;;;;;;;2.80;0.25;;;;;;;12.08;61.42;99395.66;12984964;22;20020;-62
2023/03/24 22:09:30;;;;;;;1.60;0.20;;;;;;;12.09;61.83;99386.50;12955201;22;20055;-63
2023/03/24 22:14:31;;;;;;;1.98;0.28;;;;;;;12.10;61.80;99398.97;12984265;22;20083;-65
2023/03/24 22:19:32;;;;;;;2.78;0.20;;;;;;;12.01;62.30;99394.81;12989746;22;20019;-64
2023/03/24 22:24:34;;;;;;;2.65;0.10;;;;;;;11.95;62.32;99392.13;12990711;22;20050;-66
2023/03/24 22:29:36;;;;;;;0.98;0.10;;;;;;;11.93;62.72;99391.50;12961743;22;20024;-65
2023/03/24 22:34:37;;;;;;;3.63;0.20;;;;;;;11.91;62.78;99378.25;12988401;22;20015;-65
2023/03/24 22:39:38;;;;;;;0.38;0.10;;;;;;;11.89;62.29;99372.25;12990259;22;20031;-65
2023/03/24 22:44:40;;;;;;;1.52;0.00;;;;;;;11.88;62.53;99389.41;12952620;22;20030;-62
2023/03/24 22:49:42;;;;;;;1.42;0.30;;;;;;;11.90;62.69;99390.06;12980582;22;20038;-63
2023/03/24 22:54:43;;;;;;;0.40;0.10;;;;;;;11.96;62.11;99373.06;12990587;22;20023;-63
2023/03/24 22:59:45;;;;;;;0.20;0.00;;;;;;;11.91;62.21;99383.66;12969225;22;20039;-63
2023/03/24 23:04:47;;;;;;;2.25;0.10;;;;;;;11.88;62.44;99395.63;12995805;22;20036;-65
2023/03/24 23:09:48;;;;;;;0.13;0.03;;;;;;;11.90;62.61;99395.44;12993457;22;20149;-63
2023/03/24 23:14:53;;;;;;;1.17;0.25;;;;;;;11.92;62.63;99406.84;12995414;22;20829;-65
2023/03/24 23:19:54;;;;;;;0.98;0.10;;;;;;;11.77;62.95;99407.03;12986815;22;20023;-65
2023/03/24 23:24:56;;;;;;;0.63;0.15;;;;;;;11.19;65.57;99412.94;12981922;22;20035;-64
2023/03/24 23:30:05;;;;;;;1.77;0.15;;;;;;;11.10;65.52;99414.19;12987008;22;20460;-61
2023/03/24 23:35:08;;;;;;;0.30;0.20;;;;;;;10.71;67.27;99400.38;12965253;22;20058;-62
2023/03/24 23:40:11;;;;;;;0.43;0.10;;;;;;;10.65;67.64;99376.16;12984147;22;20529;-64
2023/03/24 23:45:18;;;;;;;1.55;0.08;;;;;;;10.46;68.37;99408.09;12973286;22;20024;-62
2023/03/24 23:50:20;;;;;;;0.35;0.00;;;;;;;10.37;68.93;99412.00;12989104;22;20046;-66